Time;durP1;ratioP1;P1;durP2;ratioP2;P2;SDS_P1;SDS_P2;PMS_P1;PMS_P2;Temp;Humidity;BMP_temperature;BMP_pressure;BME280_temperature;BME280_humidity;BME280_pressure;Samples;Min_cycle;Max_cycle;Signal;HPM_P1;HPM_P2
2021/07/13 00:01:51;;;;;;;22.60;20.50;;;18.10;99.90;;;;;;4774832;29;20047;-77
2021/07/13 00:04:18;;;;;;;21.38;19.48;;;18.10;99.90;;;;;;4808660;29;20043;-76
2021/07/13 00:06:44;;;;;;;22.13;20.13;;;18.00;99.90;;;;;;4790948;29;20908;-77
2021/07/13 00:09:10;;;;;;;24.85;22.65;;;18.00;99.90;;;;;;4773769;29;20050;-76
2021/07/13 00:11:37;;;;;;;23.23;21.15;;;18.00;99.90;;;;;;4790854;29;20042;-76
2021/07/13 00:14:06;;;;;;;20.70;18.73;;;18.00;99.90;;;;;;4779841;29;20073;-76
2021/07/13 00:16:32;;;;;;;23.70;21.60;;;18.00;99.90;;;;;;4808274;29;20039;-76
2021/07/13 00:18:59;;;;;;;22.77;20.77;;;18.00;99.90;;;;;;4775841;29;20050;-77
2021/07/13 00:21:26;;;;;;;26.63;24.02;;;18.00;99.90;;;;;;4806924;29;20501;-76
2021/07/13 00:23:52;;;;;;;22.75;20.63;;;18.00;99.90;;;;;;4807102;29;20494;-76
2021/07/13 00:26:19;;;;;;;25.77;23.38;;;18.00;99.90;;;;;;4771349;29;20050;-76
2021/07/13 00:28:45;;;;;;;22.75;20.80;;;18.00;99.90;;;;;;4788385;29;20052;-76
2021/07/13 00:31:12;;;;;;;25.77;23.58;;;18.00;99.90;;;;;;4791489;29;20047;-77
2021/07/13 00:33:38;;;;;;;23.42;21.33;;;18.00;99.90;;;;;;4772854;29;20070;-76
2021/07/13 00:36:04;;;;;;;24.80;22.52;;;18.10;99.90;;;;;;4791138;29;20062;-77
2021/07/13 00:38:31;;;;;;;22.25;20.30;;;18.00;99.90;;;;;;4789835;29;20913;-77
2021/07/13 00:40:57;;;;;;;22.52;20.63;;;18.10;99.90;;;;;;4801970;29;20053;-77
2021/07/13 00:43:24;;;;;;;25.55;23.25;;;18.10;99.90;;;;;;4799397;29;20145;-77
2021/07/13 00:45:50;;;;;;;23.48;21.35;;;18.10;99.90;;;;;;4789825;29;20398;-76
2021/07/13 00:48:19;;;;;;;21.40;19.42;;;18.00;99.90;;;;;;4804492;29;20043;-77
2021/07/13 00:50:45;;;;;;;22.35;20.35;;;18.10;99.90;;;;;;4803186;29;20042;-76
2021/07/13 00:53:12;;;;;;;25.55;23.23;;;18.10;99.90;;;;;;4772041;29;20057;-76
2021/07/13 00:55:38;;;;;;;24.23;22.00;;;18.10;99.90;;;;;;4792013;29;20050;-77
2021/07/13 00:58:05;;;;;;;24.38;21.92;;;18.10;99.90;;;;;;4791000;29;20042;-76
2021/07/13 01:00:32;;;;;;;22.70;20.63;;;18.10;99.90;;;;;;4788689;29;20051;-77
2021/07/13 01:03:03;;;;;;;24.80;22.50;;;18.10;99.90;;;;;;4785809;29;20046;-77
2021/07/13 01:05:39;;;;;;;21.13;19.13;;;18.10;99.90;;;;;;4802427;29;20442;-77
2021/07/13 01:08:08;;;;;;;23.33;21.27;;;18.10;99.90;;;;;;4773714;29;20046;-77
2021/07/13 01:11:03;;;;;;;24.45;22.25;;;18.10;99.90;;;;;;4772558;29;20384;-77
2021/07/13 01:13:50;;;;;;;17.50;15.98;;;18.10;99.90;;;;;;4793076;29;20022;-77
2021/07/13 01:16:37;;;;;;;21.25;19.40;;;18.10;99.90;;;;;;4790850;29;20388;-77
2021/07/13 01:19:35;;;;;;;22.30;20.20;;;18.20;99.90;;;;;;4783680;29;20495;-77
2021/07/13 01:22:15;;;;;;;22.48;20.38;;;18.20;99.90;;;;;;4807081;29;20054;-77
2021/07/13 01:25:00;;;;;;;22.80;20.67;;;18.20;99.90;;;;;;4808464;29;20054;-77
2021/07/13 01:27:48;;;;;;;23.30;21.20;;;18.30;99.90;;;;;;4792261;29;20049;-77
2021/07/13 01:30:25;;;;;;;23.17;21.13;;;18.30;99.90;;;;;;4798610;29;20034;-77
2021/07/13 01:33:16;;;;;;;25.52;23.00;;;18.30;99.90;;;;;;4806182;29;20034;-77
2021/07/13 01:35:50;;;;;;;22.42;20.33;;;18.30;99.90;;;;;;4790156;29;20110;-77
2021/07/13 01:38:20;;;;;;;23.30;21.20;;;18.30;99.90;;;;;;4806468;29;20050;-77
2021/07/13 01:40:52;;;;;;;24.13;21.83;;;18.30;99.90;;;;;;4791002;29;20061;-76
2021/07/13 01:43:19;;;;;;;23.95;21.75;;;18.30;99.90;;;;;;4790396;29;20402;-77
2021/07/13 01:45:47;;;;;;;26.95;24.50;;;18.30;99.90;;;;;;4759315;29;20058;-77
2021/07/13 01:48:14;;;;;;;24.10;21.90;;;18.30;99.90;;;;;;4780784;29;20503;-77
2021/07/13 01:50:43;;;;;;;23.45;21.30;;;18.30;99.90;;;;;;4770601;29;20058;-77
2021/07/13 01:53:11;;;;;;;24.08;21.88;;;18.30;99.90;;;;;;4774589;29;20054;-77
2021/07/13 01:55:39;;;;;;;24.10;21.90;;;18.20;99.90;;;;;;4806293;29;20035;-77
2021/07/13 01:58:06;;;;;;;22.58;20.38;;;18.20;99.90;;;;;;4776562;29;20059;-77
2021/07/13 02:00:33;;;;;;;22.83;20.77;;;18.20;99.90;;;;;;4771409;29;20073;-77
2021/07/13 02:03:02;;;;;;;23.55;21.45;;;18.20;99.90;;;;;;4773714;29;20038;-81
2021/07/13 02:05:30;;;;;;;23.95;21.75;;;18.20;99.90;;;;;;4772771;29;20038;-81
2021/07/13 02:08:02;;;;;;;23.40;21.30;;;18.10;99.90;;;;;;4756166;29;20411;-76
2021/07/13 02:10:30;;;;;;;22.45;20.33;;;18.10;99.90;;;;;;4785973;29;20037;-78
2021/07/13 02:12:56;;;;;;;23.08;20.98;;;18.10;99.90;;;;;;4788952;29;20157;-78
2021/07/13 02:15:23;;;;;;;21.95;20.02;;;18.20;99.90;;;;;;4775592;29;20051;-78
2021/07/13 02:17:50;;;;;;;23.45;21.35;;;18.20;99.90;;;;;;4774433;29;20058;-79
2021/07/13 02:20:19;;;;;;;23.88;21.67;;;18.20;99.90;;;;;;4770718;29;20063;-77
2021/07/13 02:22:46;;;;;;;24.13;21.63;;;18.20;99.90;;;;;;4783369;29;20047;-78
2021/07/13 02:25:13;;;;;;;24.42;22.20;;;18.20;99.90;;;;;;4784542;29;20472;-78
2021/07/13 02:27:48;;;;;;;22.67;20.48;;;18.20;99.90;;;;;;4784050;29;20050;-78
2021/07/13 02:30:15;;;;;;;23.40;21.20;;;18.20;99.90;;;;;;4783237;29;20058;-78
2021/07/13 02:32:49;;;;;;;23.08;20.90;;;18.30;99.90;;;;;;4775069;29;20407;-77
2021/07/13 02:35:19;;;;;;;23.90;21.70;;;18.20;99.90;;;;;;4787973;29;20058;-77
2021/07/13 02:37:47;;;;;;;21.95;19.88;;;18.30;99.90;;;;;;4786846;29;20065;-77
2021/07/13 02:40:16;;;;;;;25.20;22.90;;;18.20;99.90;;;;;;4786648;29;20057;-77
2021/07/13 02:42:47;;;;;;;25.25;22.77;;;18.20;99.90;;;;;;4804394;29;20044;-77
2021/07/13 02:45:15;;;;;;;23.88;21.27;;;18.20;99.90;;;;;;4782955;29;20499;-76
2021/07/13 02:47:44;;;;;;;20.38;18.45;;;18.20;99.90;;;;;;4804473;29;20169;-77
2021/07/13 02:50:12;;;;;;;24.75;22.25;;;18.20;99.90;;;;;;4782853;29;20414;-76
2021/07/13 02:52:40;;;;;;;25.25;22.88;;;18.10;99.90;;;;;;4779712;29;20042;-76
2021/07/13 02:55:15;;;;;;;25.98;23.13;;;18.10;99.90;;;;;;4805907;29;20038;-76
2021/07/13 02:57:43;;;;;;;25.05;22.65;;;18.10;99.90;;;;;;4802278;29;20046;-76
2021/07/13 03:00:13;;;;;;;24.63;22.33;;;18.00;99.90;;;;;;4784819;29;20046;-79
2021/07/13 03:02:42;;;;;;;23.90;21.63;;;18.00;99.90;;;;;;4804862;29;20046;-79
2021/07/13 03:05:13;;;;;;;23.55;21.05;;;18.00;99.90;;;;;;4758217;29;20057;-79
2021/07/13 03:07:40;;;;;;;21.67;19.58;;;18.00;99.90;;;;;;4787727;29;20407;-79
2021/07/13 03:10:08;;;;;;;24.50;22.08;;;18.00;99.90;;;;;;4786254;29;20352;-79
2021/07/13 03:12:35;;;;;;;26.25;23.65;;;18.00;99.90;;;;;;4804439;29;20387;-79
2021/07/13 03:15:04;;;;;;;25.48;22.98;;;18.00;99.90;;;;;;4787222;29;20055;-79
2021/07/13 03:17:30;;;;;;;24.73;22.48;;;18.00;99.90;;;;;;4777271;29;20055;-79
2021/07/13 03:19:57;;;;;;;24.45;22.05;;;18.00;99.90;;;;;;4787284;29;20058;-79
2021/07/13 03:22:39;;;;;;;25.55;22.85;;;18.00;99.90;;;;;;4784170;29;20059;-80
2021/07/13 03:25:07;;;;;;;24.65;22.35;;;18.00;99.90;;;;;;4802255;29;20035;-80
2021/07/13 03:27:35;;;;;;;24.17;21.88;;;18.00;99.90;;;;;;4789702;29;20582;-80
2021/07/13 03:30:03;;;;;;;24.05;21.65;;;18.10;99.90;;;;;;4798186;29;20039;-79
2021/07/13 03:32:33;;;;;;;25.45;22.92;;;18.10;99.90;;;;;;4760194;29;20062;-80
2021/07/13 03:35:00;;;;;;;22.63;20.42;;;18.10;99.90;;;;;;4787193;29;20128;-80
2021/07/13 03:37:29;;;;;;;26.30;23.83;;;18.20;99.90;;;;;;4758349;29;20066;-80
2021/07/13 03:39:56;;;;;;;28.13;24.30;;;18.20;99.90;;;;;;4797224;29;20444;-80
2021/07/13 03:42:23;;;;;;;26.30;23.67;;;18.20;99.90;;;;;;4785288;29;20504;-80
2021/07/13 03:44:50;;;;;;;28.23;25.20;;;18.20;99.90;;;;;;4782817;29;20042;-80
2021/07/13 03:47:20;;;;;;;28.92;26.02;;;18.30;99.90;;;;;;4805192;29;20043;-79
2021/07/13 03:49:49;;;;;;;26.98;24.13;;;18.30;99.90;;;;;;4770519;29;20058;-79
2021/07/13 03:52:16;;;;;;;28.48;25.58;;;18.30;99.90;;;;;;4802133;29;20050;-80
2021/07/13 03:54:43;;;;;;;28.42;25.55;;;18.30;99.90;;;;;;4771758;29;20050;-79
2021/07/13 03:57:09;;;;;;;30.60;27.48;;;18.40;99.90;;;;;;4789744;29;20412;-80
2021/07/13 03:59:36;;;;;;;30.65;27.35;;;18.40;99.90;;;;;;4772770;29;20043;-79
2021/07/13 04:02:03;;;;;;;31.38;27.83;;;18.40;99.90;;;;;;4775499;29;20410;-79
2021/07/13 04:04:30;;;;;;;31.50;28.10;;;18.40;99.90;;;;;;4802834;29;20047;-80
2021/07/13 04:06:56;;;;;;;33.80;30.33;;;18.50;99.90;;;;;;4804090;29;20486;-80
2021/07/13 04:09:23;;;;;;;31.90;28.52;;;18.60;99.90;;;;;;4783081;29;20046;-79
2021/07/13 04:11:49;;;;;;;33.28;29.85;;;18.60;99.90;;;;;;4799264;29;20455;-80
2021/07/13 04:14:15;;;;;;;35.70;31.95;;;18.60;99.90;;;;;;4780226;29;20049;-80
2021/07/13 04:16:42;;;;;;;39.95;35.67;;;18.70;99.90;;;;;;4768203;29;20058;-79
2021/07/13 04:19:08;;;;;;;36.83;32.85;;;18.70;99.90;;;;;;4766939;29;20051;-80
2021/07/13 04:21:34;;;;;;;37.13;33.15;;;18.70;99.90;;;;;;4801575;29;20065;-80
2021/07/13 04:24:01;;;;;;;33.65;30.20;;;18.70;99.90;;;;;;4771331;29;20053;-80
2021/07/13 04:26:27;;;;;;;35.08;31.42;;;18.70;99.90;;;;;;4783374;29;20050;-79
2021/07/13 04:28:54;;;;;;;35.13;31.48;;;18.80;99.90;;;;;;4780941;29;20047;-80
2021/07/13 04:31:20;;;;;;;38.45;34.35;;;18.70;99.90;;;;;;4768602;29;20054;-79
2021/07/13 04:33:47;;;;;;;34.50;30.95;;;18.70;99.90;;;;;;4805492;29;20050;-79
2021/07/13 04:36:13;;;;;;;39.70;35.53;;;18.80;99.90;;;;;;4806971;29;20065;-79
2021/07/13 04:38:41;;;;;;;39.90;35.65;;;18.70;99.90;;;;;;4801865;29;20046;-79
2021/07/13 04:41:08;;;;;;;41.15;34.80;;;18.70;99.90;;;;;;4772813;29;20058;-79
2021/07/13 04:43:34;;;;;;;38.47;34.33;;;18.70;99.90;;;;;;4794868;29;20046;-80
2021/07/13 04:46:01;;;;;;;42.53;37.13;;;18.70;99.90;;;;;;4789561;29;20050;-79
2021/07/13 04:48:27;;;;;;;42.53;37.22;;;18.70;99.90;;;;;;4772116;29;20046;-79
2021/07/13 04:50:54;;;;;;;41.47;36.38;;;18.70;99.90;;;;;;4775518;29;20050;-80
2021/07/13 04:53:20;;;;;;;37.03;31.98;;;18.80;99.90;;;;;;4773296;29;20527;-80
2021/07/13 04:55:46;;;;;;;39.83;35.53;;;18.70;99.90;;;;;;4788490;29;20042;-79
2021/07/13 04:58:13;;;;;;;36.47;30.77;;;18.70;99.90;;;;;;4791394;29;20043;-79
2021/07/13 05:00:39;;;;;;;40.55;35.65;;;18.70;99.90;;;;;;4803055;29;20053;-79
2021/07/13 05:03:05;;;;;;;39.08;34.20;;;18.70;99.90;;;;;;4790147;29;20062;-79
2021/07/13 05:05:32;;;;;;;42.17;34.80;;;18.70;99.90;;;;;;4773692;29;20061;-79
2021/07/13 05:07:58;;;;;;;42.63;37.83;;;18.70;99.90;;;;;;4790723;29;20090;-79
2021/07/13 05:10:25;;;;;;;40.55;34.00;;;18.60;99.90;;;;;;4807517;29;20046;-79
2021/07/13 05:12:51;;;;;;;41.08;34.22;;;18.60;99.90;;;;;;4772417;29;20051;-80
2021/07/13 05:15:17;;;;;;;43.63;36.97;;;18.60;99.90;;;;;;4793207;29;20050;-80
2021/07/13 05:17:44;;;;;;;51.80;38.70;;;18.70;99.90;;;;;;4803603;29;20049;-79
2021/07/13 05:20:13;;;;;;;47.83;38.55;;;18.70;99.90;;;;;;4784171;29;20049;-80
2021/07/13 05:22:41;;;;;;;50.97;41.90;;;18.70;99.90;;;;;;4786433;29;20039;-79
2021/07/13 05:25:09;;;;;;;54.03;42.55;;;18.70;99.90;;;;;;4802334;29;20993;-80
2021/07/13 05:27:41;;;;;;;50.33;41.45;;;18.70;99.90;;;;;;4787522;29;20051;-79
2021/07/13 05:30:09;;;;;;;50.33;40.53;;;18.80;99.90;;;;;;4785678;29;20046;-78
2021/07/13 05:32:37;;;;;;;49.10;39.65;;;18.80;99.90;;;;;;4785223;29;20034;-79
2021/07/13 05:35:04;;;;;;;45.35;37.50;;;18.80;99.90;;;;;;4789453;29;20845;-80
2021/07/13 05:37:30;;;;;;;47.70;37.90;;;18.80;99.90;;;;;;4770611;29;20422;-76
2021/07/13 05:39:58;;;;;;;44.53;36.10;;;18.80;99.90;;;;;;4785129;29;20038;-75
2021/07/13 05:42:25;;;;;;;44.92;37.13;;;18.80;99.90;;;;;;4788764;29;20043;-75
2021/07/13 05:44:52;;;;;;;44.95;35.47;;;18.80;99.90;;;;;;4772881;29;21379;-75
2021/07/13 05:47:18;;;;;;;44.35;35.63;;;18.80;99.90;;;;;;4789651;29;20041;-76
2021/07/13 05:49:45;;;;;;;49.05;37.58;;;18.80;99.90;;;;;;4771652;29;20073;-76
2021/07/13 05:52:11;;;;;;;47.90;36.50;;;18.80;99.90;;;;;;4797919;29;20038;-76
2021/07/13 05:54:37;;;;;;;49.97;39.97;;;18.80;99.90;;;;;;4769798;29;20097;-76
2021/07/13 05:57:04;;;;;;;52.40;42.10;;;18.80;99.90;;;;;;4771824;29;20553;-77
2021/07/13 05:59:30;;;;;;;54.67;42.05;;;18.80;99.90;;;;;;4785749;29;20038;-76
2021/07/13 06:01:57;;;;;;;53.42;38.55;;;18.80;99.90;;;;;;4775992;29;20054;-76
2021/07/13 06:04:23;;;;;;;51.95;40.08;;;18.80;99.90;;;;;;4793610;29;20054;-76
2021/07/13 06:06:49;;;;;;;50.58;37.58;;;18.90;99.90;;;;;;4809220;29;20499;-76
2021/07/13 06:09:16;;;;;;;58.03;42.90;;;18.90;99.90;;;;;;4778281;29;20057;-76
2021/07/13 06:11:42;;;;;;;59.60;42.50;;;18.90;99.90;;;;;;4788601;29;20047;-76
2021/07/13 06:14:09;;;;;;;68.03;46.40;;;19.00;99.90;;;;;;4775859;29;20047;-76
2021/07/13 06:16:35;;;;;;;63.42;44.97;;;19.00;99.90;;;;;;4771726;29;20060;-76
2021/07/13 06:19:02;;;;;;;72.30;47.85;;;18.90;99.90;;;;;;4798375;29;20046;-76
2021/07/13 06:21:28;;;;;;;65.05;44.63;;;19.00;99.90;;;;;;4798735;29;20042;-77
2021/07/13 06:23:56;;;;;;;61.08;44.40;;;19.00;99.90;;;;;;4802281;29;20046;-76
2021/07/13 06:26:22;;;;;;;60.22;44.13;;;19.00;99.90;;;;;;4791404;29;20237;-76
2021/07/13 06:28:49;;;;;;;58.20;42.63;;;19.00;99.90;;;;;;4785835;29;20065;-76
2021/07/13 06:31:15;;;;;;;63.20;43.28;;;19.10;99.90;;;;;;4806102;29;20049;-76
2021/07/13 06:33:42;;;;;;;60.60;43.50;;;19.10;99.90;;;;;;4773968;29;20051;-76
2021/07/13 06:36:08;;;;;;;63.60;46.25;;;19.10;99.90;;;;;;4803782;29;20058;-76
2021/07/13 06:38:35;;;;;;;61.03;43.65;;;19.20;99.90;;;;;;4785076;29;20039;-76
2021/07/13 06:41:01;;;;;;;62.17;45.08;;;19.20;99.90;;;;;;4786142;29;20042;-76
2021/07/13 06:43:28;;;;;;;57.65;42.22;;;19.20;99.90;;;;;;4804508;29;20045;-76
2021/07/13 06:45:54;;;;;;;59.75;45.20;;;19.20;99.90;;;;;;4775719;29;20491;-76
2021/07/13 06:48:21;;;;;;;65.88;47.17;;;19.30;99.90;;;;;;4787933;29;20054;-77
2021/07/13 06:50:47;;;;;;;67.75;48.05;;;19.30;99.90;;;;;;4805846;29;20380;-80
2021/07/13 06:53:14;;;;;;;58.83;44.42;;;19.30;99.90;;;;;;4782684;29;20043;-78
2021/07/13 06:55:40;;;;;;;67.32;50.17;;;19.40;99.90;;;;;;4786280;29;20074;-78
2021/07/13 06:58:06;;;;;;;66.40;47.78;;;19.40;99.90;;;;;;4771096;29;20061;-77
2021/07/13 07:00:33;;;;;;;63.58;47.78;;;19.40;99.90;;;;;;4800145;29;20802;-78
2021/07/13 07:02:59;;;;;;;61.15;44.95;;;19.40;99.90;;;;;;4784261;29;20096;-77
2021/07/13 07:05:26;;;;;;;61.40;44.63;;;19.40;99.90;;;;;;4769841;29;20053;-78
2021/07/13 07:07:53;;;;;;;57.00;43.05;;;19.40;99.90;;;;;;4785327;29;20391;-78
2021/07/13 07:10:20;;;;;;;61.25;45.75;;;19.40;99.90;;;;;;4780639;29;20049;-77
2021/07/13 07:12:48;;;;;;;53.83;42.35;;;19.40;99.90;;;;;;4785771;29;20053;-77
2021/07/13 07:15:16;;;;;;;54.80;43.30;;;19.40;99.90;;;;;;4779940;29;20059;-78
2021/07/13 07:17:50;;;;;;;49.78;38.10;;;19.50;99.90;;;;;;4772058;29;20059;-78
2021/07/13 07:20:19;;;;;;;55.53;41.22;;;19.50;99.90;;;;;;4780986;29;20392;-78
2021/07/13 07:22:46;;;;;;;57.53;43.00;;;19.50;99.90;;;;;;4784638;29;20039;-77
2021/07/13 07:25:14;;;;;;;56.47;42.95;;;19.50;99.90;;;;;;4802262;29;20045;-78
2021/07/13 07:27:40;;;;;;;59.67;43.85;;;19.50;99.90;;;;;;4799118;29;20519;-78
2021/07/13 07:30:09;;;;;;;60.90;44.55;;;19.50;99.90;;;;;;4781294;29;20039;-78
2021/07/13 07:32:37;;;;;;;57.75;42.60;;;19.60;99.90;;;;;;4754137;29;20062;-78
2021/07/13 07:35:07;;;;;;;52.20;39.33;;;19.60;99.90;;;;;;4794447;29;20039;-79
2021/07/13 07:37:35;;;;;;;49.42;38.25;;;19.70;99.90;;;;;;4782051;29;20050;-78
2021/07/13 07:40:07;;;;;;;51.30;38.47;;;19.70;99.90;;;;;;4767384;29;20039;-78
2021/07/13 07:42:34;;;;;;;51.42;40.50;;;19.80;99.90;;;;;;4783240;29;20097;-78
2021/07/13 07:45:01;;;;;;;51.05;38.53;;;19.80;99.90;;;;;;4781692;29;20039;-78
2021/07/13 07:47:28;;;;;;;51.38;38.13;;;19.80;99.90;;;;;;4804478;29;20034;-78
2021/07/13 07:49:54;;;;;;;47.15;35.05;;;19.80;99.90;;;;;;4799469;29;20047;-78
2021/07/13 07:52:22;;;;;;;55.05;40.83;;;19.90;99.90;;;;;;4784195;29;20058;-78
2021/07/13 07:54:49;;;;;;;43.80;34.38;;;19.90;99.90;;;;;;4771755;29;20061;-78
2021/07/13 07:57:16;;;;;;;42.42;32.50;;;20.00;99.90;;;;;;4800292;29;20050;-78
2021/07/13 07:59:42;;;;;;;42.40;33.25;;;20.00;99.90;;;;;;4781122;29;20054;-78
2021/07/13 08:02:08;;;;;;;55.40;43.17;;;20.00;99.90;;;;;;4753689;29;20057;-78
2021/07/13 08:04:35;;;;;;;48.50;36.97;;;20.00;99.90;;;;;;4800166;29;20069;-78
2021/07/13 08:07:02;;;;;;;49.20;36.15;;;20.00;99.90;;;;;;4773806;29;20061;-77
2021/07/13 08:09:28;;;;;;;39.08;32.13;;;19.90;99.90;;;;;;4764624;29;20047;-78
2021/07/13 08:11:55;;;;;;;44.75;34.10;;;19.90;99.90;;;;;;4799293;29;21363;-78
2021/07/13 08:14:21;;;;;;;43.95;34.22;;;19.90;99.90;;;;;;4805778;29;20046;-78
2021/07/13 08:16:49;;;;;;;43.30;31.92;;;19.90;99.90;;;;;;4777749;29;20094;-78
2021/07/13 08:19:16;;;;;;;37.65;29.48;;;19.90;99.90;;;;;;4771445;29;20476;-79
2021/07/13 08:21:43;;;;;;;42.20;33.90;;;19.90;99.90;;;;;;4806320;29;20410;-79
2021/07/13 08:24:11;;;;;;;36.38;30.98;;;19.90;99.90;;;;;;4787423;29;20587;-79
2021/07/13 08:26:38;;;;;;;36.85;31.50;;;20.00;99.90;;;;;;4791372;29;20042;-77
2021/07/13 08:29:05;;;;;;;38.70;30.85;;;20.10;99.90;;;;;;4786091;29;20043;-77
2021/07/13 08:31:32;;;;;;;57.28;44.10;;;20.20;99.90;;;;;;4788393;29;20038;-79
2021/07/13 08:33:58;;;;;;;37.80;30.55;;;20.20;99.90;;;;;;4806449;29;20049;-77
2021/07/13 08:36:25;;;;;;;37.17;30.13;;;20.30;99.90;;;;;;4790497;29;20078;-77
2021/07/13 08:38:51;;;;;;;34.60;29.52;;;20.40;99.90;;;;;;4786331;29;20047;-77
2021/07/13 08:41:21;;;;;;;35.30;30.13;;;20.40;99.90;;;;;;4787500;29;20047;-77
2021/07/13 08:43:50;;;;;;;40.42;32.40;;;20.60;99.90;;;;;;4775101;29;20038;-77
2021/07/13 08:46:18;;;;;;;38.97;33.38;;;20.70;99.90;;;;;;4787152;29;20039;-77
2021/07/13 08:48:49;;;;;;;37.92;31.17;;;20.80;99.90;;;;;;4799121;29;20047;-77
2021/07/13 08:51:18;;;;;;;41.17;35.35;;;20.90;99.90;;;;;;4767348;29;20046;-77
2021/07/13 08:53:44;;;;;;;41.00;33.03;;;20.90;99.90;;;;;;4790341;29;20039;-77
2021/07/13 08:56:11;;;;;;;39.75;34.63;;;21.00;99.90;;;;;;4787771;29;20054;-77
2021/07/13 08:58:37;;;;;;;39.95;34.35;;;21.00;99.90;;;;;;4785381;29;20046;-78
2021/07/13 09:01:04;;;;;;;39.72;33.50;;;21.10;99.90;;;;;;4785172;29;20066;-78
2021/07/13 09:03:32;;;;;;;34.00;29.58;;;21.20;99.90;;;;;;4786001;29;20047;-78
2021/07/13 09:06:00;;;;;;;37.20;30.67;;;21.30;99.90;;;;;;4784888;29;20894;-78
2021/07/13 09:08:26;;;;;;;35.17;30.42;;;21.30;99.90;;;;;;4793289;29;20031;-78
2021/07/13 09:11:12;;;;;;;33.03;29.52;;;21.50;99.90;;;;;;4783212;29;20050;-77
2021/07/13 09:13:46;;;;;;;35.13;30.80;;;21.60;99.90;;;;;;4786161;29;20046;-76
2021/07/13 09:16:16;;;;;;;32.85;29.15;;;21.70;99.90;;;;;;4799855;29;20047;-75
2021/07/13 09:18:54;;;;;;;31.42;28.08;;;21.70;99.90;;;;;;4790933;29;20038;-76
2021/07/13 09:21:24;;;;;;;32.70;29.15;;;21.80;99.90;;;;;;4782597;29;20069;-76
2021/07/13 09:24:20;;;;;;;30.90;27.63;;;21.80;99.90;;;;;;4769689;29;20054;-76
2021/07/13 09:26:59;;;;;;;29.13;25.95;;;21.90;99.90;;;;;;4785701;29;20050;-76
2021/07/13 09:29:33;;;;;;;30.70;27.55;;;22.00;99.90;;;;;;4783810;29;20043;-76
2021/07/13 09:32:18;;;;;;;29.15;26.13;;;22.10;99.90;;;;;;4800483;29;20050;-76
2021/07/13 09:34:51;;;;;;;31.02;27.83;;;22.00;99.90;;;;;;4787512;29;20061;-76
2021/07/13 09:37:27;;;;;;;33.95;30.27;;;22.00;99.90;;;;;;4789747;29;20046;-76
2021/07/13 09:40:09;;;;;;;28.13;24.83;;;22.10;99.90;;;;;;4803729;29;20045;-76
2021/07/13 09:42:56;;;;;;;25.50;22.92;;;22.10;99.90;;;;;;4800487;29;20046;-76
2021/07/13 09:45:24;;;;;;;25.77;23.27;;;22.10;99.90;;;;;;4805722;29;20041;-77
2021/07/13 09:47:53;;;;;;;27.52;24.63;;;22.20;99.90;;;;;;4805103;29;20657;-76
2021/07/13 09:50:30;;;;;;;25.02;22.63;;;22.30;99.90;;;;;;4784281;29;20042;-76
2021/07/13 09:52:59;;;;;;;26.10;23.23;;;22.30;99.90;;;;;;4786475;29;20046;-76
2021/07/13 09:55:26;;;;;;;24.67;22.17;;;22.30;99.90;;;;;;4786048;29;20043;-76
2021/07/13 09:57:53;;;;;;;25.77;23.20;;;22.20;99.90;;;;;;4769209;29;20054;-76
2021/07/13 10:00:20;;;;;;;24.92;22.55;;;22.30;99.90;;;;;;4766147;29;20487;-77
2021/07/13 10:02:47;;;;;;;25.50;23.00;;;22.40;99.90;;;;;;4768079;29;20038;-78
2021/07/13 10:05:13;;;;;;;22.02;19.90;;;22.60;99.90;;;;;;4776708;29;20392;-77
2021/07/13 10:07:43;;;;;;;25.73;23.13;;;22.80;99.90;;;;;;4786414;29;20035;-76
2021/07/13 10:10:14;;;;;;;21.42;19.23;;;22.80;99.90;;;;;;4783745;29;20054;-76
2021/07/13 10:12:41;;;;;;;22.02;19.90;;;22.80;99.90;;;;;;4760618;29;20054;-77
2021/07/13 10:15:11;;;;;;;22.48;20.27;;;22.90;99.90;;;;;;4783259;29;20047;-77
2021/07/13 10:17:39;;;;;;;22.55;20.33;;;23.00;99.90;;;;;;4783896;29;20054;-77
2021/07/13 10:20:08;;;;;;;20.67;18.55;;;23.00;99.90;;;;;;4771816;29;20050;-77
2021/07/13 10:22:42;;;;;;;19.35;17.48;;;23.00;99.90;;;;;;4806017;29;20042;-77
2021/07/13 10:25:09;;;;;;;19.60;17.70;;;23.00;99.90;;;;;;4773502;29;20047;-78
2021/07/13 10:27:41;;;;;;;20.27;18.27;;;23.00;99.90;;;;;;4801356;29;20520;-76
2021/07/13 10:30:15;;;;;;;22.95;20.75;;;23.00;99.90;;;;;;4800676;29;20031;-77
2021/07/13 10:32:43;;;;;;;21.17;19.17;;;22.80;99.90;;;;;;4782340;29;20515;-76
2021/07/13 10:35:23;;;;;;;20.48;18.48;;;22.80;99.90;;;;;;4804724;29;20918;-76
2021/07/13 10:38:15;;;;;;;18.55;16.67;;;22.70;99.90;;;;;;4787391;29;20050;-75
2021/07/13 10:40:42;;;;;;;18.40;16.50;;;22.70;99.90;;;;;;4786820;29;20046;-79
2021/07/13 10:43:24;;;;;;;20.83;18.65;;;22.70;99.90;;;;;;4770619;29;20050;-75
2021/07/13 10:46:11;;;;;;;20.67;18.58;;;22.60;99.90;;;;;;4786211;29;20034;-77
2021/07/13 10:48:38;;;;;;;21.65;19.45;;;22.60;99.90;;;;;;4797875;29;20058;-77
2021/07/13 10:51:09;;;;;;;24.63;21.92;;;22.70;99.90;;;;;;4785908;29;20053;-77
2021/07/13 10:53:39;;;;;;;20.63;18.63;;;22.70;99.90;;;;;;4784985;29;20674;-76
2021/07/13 10:56:11;;;;;;;24.08;21.55;;;22.60;99.90;;;;;;4783063;29;20419;-77
2021/07/13 10:58:41;;;;;;;21.55;19.35;;;22.70;99.90;;;;;;4800456;29;20053;-77
2021/07/13 11:01:10;;;;;;;21.67;19.48;;;22.70;99.90;;;;;;4782869;29;20034;-77
2021/07/13 11:03:36;;;;;;;24.08;21.55;;;22.90;99.90;;;;;;4784178;29;20053;-77
2021/07/13 11:06:17;;;;;;;23.02;20.73;;;23.00;99.90;;;;;;4801088;29;20372;-76
2021/07/13 11:08:52;;;;;;;22.98;20.67;;;23.10;99.90;;;;;;4781880;29;20035;-76
2021/07/13 11:11:27;;;;;;;23.83;21.30;;;23.20;99.90;;;;;;4785683;29;20030;-77
2021/07/13 11:13:57;;;;;;;22.70;20.30;;;23.20;99.90;;;;;;4784343;29;20491;-76
2021/07/13 11:16:30;;;;;;;24.73;22.10;;;23.20;99.90;;;;;;4771099;29;20181;-76
2021/07/13 11:18:58;;;;;;;20.92;18.80;;;23.00;99.90;;;;;;4800019;29;20049;-76
2021/07/13 11:21:28;;;;;;;24.83;22.15;;;23.00;99.90;;;;;;4788841;29;20053;-76
2021/07/13 11:24:02;;;;;;;21.92;19.85;;;22.90;99.90;;;;;;4786388;29;20134;-76
2021/07/13 11:26:30;;;;;;;21.45;19.35;;;22.80;99.90;;;;;;4803784;29;20041;-77
2021/07/13 11:28:58;;;;;;;23.17;20.77;;;22.80;99.90;;;;;;4778186;29;20050;-76
2021/07/13 11:31:30;;;;;;;26.80;23.88;;;22.80;99.90;;;;;;4789450;29;20038;-76
2021/07/13 11:33:59;;;;;;;22.95;20.75;;;22.80;99.90;;;;;;4774854;29;20061;-76
2021/07/13 11:36:30;;;;;;;21.65;19.48;;;22.80;99.90;;;;;;4780225;29;20636;-77
2021/07/13 11:38:58;;;;;;;24.98;22.48;;;22.90;99.90;;;;;;4766461;29;20054;-77
2021/07/13 11:41:26;;;;;;;23.25;21.02;;;23.00;99.90;;;;;;4798704;29;20506;-77
2021/07/13 11:43:56;;;;;;;24.73;22.02;;;23.00;99.90;;;;;;4780232;29;20499;-77
2021/07/13 11:46:29;;;;;;;23.33;20.83;;;23.10;99.90;;;;;;4781499;29;20035;-79
2021/07/13 11:49:00;;;;;;;27.95;25.05;;;23.20;99.90;;;;;;4769062;29;20407;-79
2021/07/13 11:51:28;;;;;;;27.57;24.37;;;23.30;99.90;;;;;;4772346;29;20072;-78
2021/07/13 11:54:09;;;;;;;24.05;21.65;;;23.40;99.90;;;;;;4805599;29;20043;-77
2021/07/13 11:56:39;;;;;;;24.65;22.25;;;23.40;99.90;;;;;;4807825;29;20038;-77
2021/07/13 11:59:06;;;;;;;20.00;18.10;;;23.40;99.90;;;;;;4786493;29;20049;-76
2021/07/13 12:01:34;;;;;;;23.90;21.40;;;23.50;99.90;;;;;;4770798;29;20062;-76
2021/07/13 12:04:11;;;;;;;24.63;22.15;;;23.50;99.90;;;;;;4789208;29;20092;-76
2021/07/13 12:06:40;;;;;;;24.25;21.67;;;23.50;99.90;;;;;;4801909;29;20034;-76
2021/07/13 12:09:11;;;;;;;24.15;21.85;;;23.50;99.90;;;;;;4800255;29;20518;-76
2021/07/13 12:11:47;;;;;;;22.70;20.53;;;23.60;99.90;;;;;;4784233;29;20356;-76
2021/07/13 12:14:16;;;;;;;23.23;21.05;;;23.60;99.90;;;;;;4774257;29;20054;-76
2021/07/13 12:16:44;;;;;;;22.25;20.08;;;23.60;99.90;;;;;;4787026;29;20043;-76
2021/07/13 12:19:12;;;;;;;22.17;19.88;;;23.50;99.90;;;;;;4801416;29;20483;-76
2021/07/13 12:21:46;;;;;;;23.67;21.27;;;23.50;99.90;;;;;;4804617;29;20391;-76
2021/07/13 12:24:17;;;;;;;21.45;19.25;;;23.60;99.90;;;;;;4783130;29;20031;-76
2021/07/13 12:26:52;;;;;;;20.88;18.77;;;23.60;99.90;;;;;;4770069;29;20403;-76
2021/07/13 12:29:22;;;;;;;23.73;21.52;;;23.70;99.90;;;;;;4801935;29;20035;-76
2021/07/13 12:31:52;;;;;;;22.10;19.90;;;23.60;99.90;;;;;;4768891;29;20534;-75
2021/07/13 12:34:31;;;;;;;19.42;17.25;;;23.50;99.90;;;;;;4787294;29;20051;-76
2021/07/13 12:37:07;;;;;;;21.25;19.35;;;23.50;99.90;;;;;;4770810;29;20059;-76
2021/07/13 12:39:35;;;;;;;22.15;20.02;;;23.50;99.90;;;;;;4788701;29;20034;-76